createdAt,value
2019-01-05T00:00:21.891Z,3.40
2019-01-05T00:03:07.902Z,3.07
2019-01-05T00:05:46.767Z,3.20
2019-01-05T00:08:16.917Z,3.80
2019-01-05T00:10:50.041Z,4.00
2019-01-05T00:13:20.120Z,3.10
2019-01-05T00:15:56.602Z,3.20
2019-01-05T00:18:26.755Z,3.37
2019-01-05T00:21:19.519Z,3.47
2019-01-05T00:23:47.619Z,3.10
2019-01-05T00:26:18.345Z,3.17
2019-01-05T00:29:04.733Z,3.50
2019-01-05T00:31:50.349Z,2.90
2019-01-05T00:34:24.407Z,3.30
2019-01-05T00:37:01.275Z,3.00
2019-01-05T00:39:38.454Z,3.50
2019-01-05T00:42:15.266Z,3.60
2019-01-05T00:44:55.744Z,3.67
2019-01-05T00:47:31.515Z,3.20
2019-01-05T00:50:03.903Z,3.43
2019-01-05T00:52:43.441Z,3.33
2019-01-05T00:55:30.346Z,3.40
2019-01-05T00:58:01.674Z,3.80
2019-01-05T01:00:47.850Z,3.60
2019-01-05T01:03:35.516Z,3.93
2019-01-05T01:06:17.683Z,3.40
2019-01-05T01:08:59.546Z,3.70
2019-01-05T01:11:41.460Z,3.53
2019-01-05T01:14:17.346Z,3.43
2019-01-05T01:16:47.693Z,3.60
2019-01-05T01:19:17.928Z,3.47
2019-01-05T01:22:04.583Z,3.70
2019-01-05T01:24:50.798Z,3.43
2019-01-05T01:27:37.538Z,3.77
2019-01-05T01:30:24.807Z,3.83
2019-01-05T01:33:03.792Z,3.60
2019-01-05T01:35:42.622Z,3.47
2019-01-05T01:38:18.222Z,3.70
2019-01-05T01:40:48.440Z,3.60
2019-01-05T01:43:33.379Z,3.20
2019-01-05T01:46:10.638Z,3.10
2019-01-05T01:48:50.220Z,3.77
2019-01-05T01:51:20.573Z,2.80
2019-01-05T01:53:50.811Z,2.63
2019-01-05T01:56:21.321Z,2.93
2019-01-05T01:58:58.766Z,2.90
2019-01-05T02:01:29.183Z,2.97
2019-01-05T02:04:15.342Z,2.90
2019-01-05T02:06:55.789Z,2.73
2019-01-05T02:09:43.291Z,2.47
2019-01-05T02:12:25.099Z,2.63
2019-01-05T02:14:57.509Z,2.30
2019-01-05T02:17:46.649Z,2.50
2019-01-05T02:20:31.774Z,2.00
2019-01-05T02:23:31.051Z,2.20
2019-01-05T02:26:24.987Z,2.40
2019-01-05T02:29:27.806Z,2.20
2019-01-05T02:32:17.651Z,2.17
2019-01-05T02:35:02.542Z,2.27
2019-01-05T02:37:41.073Z,2.00
2019-01-05T02:40:35.213Z,2.03
2019-01-05T02:43:48.570Z,1.83
2019-01-05T02:46:54.533Z,1.90
2019-01-05T02:49:45.656Z,2.00
2019-01-05T02:52:43.453Z,1.87
2019-01-05T02:55:32.596Z,2.00
2019-01-05T02:58:23.295Z,2.07
2019-01-05T03:01:22.862Z,1.90
2019-01-05T03:04:10.438Z,1.57
2019-01-05T03:07:17.524Z,1.87
2019-01-05T03:10:27.723Z,1.80
2019-01-05T03:13:21.605Z,1.57
2019-01-05T03:16:23.907Z,1.97
2019-01-05T03:19:21.831Z,1.70
2019-01-05T03:22:17.388Z,1.87
2019-01-05T03:25:12.463Z,2.10
2019-01-05T03:28:16.512Z,2.13
2019-01-05T03:31:14.841Z,1.90
2019-01-05T03:34:31.455Z,1.67
2019-01-05T03:37:43.274Z,1.90
2019-01-05T03:40:53.236Z,1.60
2019-01-05T03:43:45.437Z,1.60
2019-01-05T03:46:38.995Z,1.70
2019-01-05T03:49:30.756Z,1.50
2019-01-05T03:52:30.545Z,1.40
2019-01-05T03:55:39.668Z,1.80
2019-01-05T03:58:54.887Z,1.60
2019-01-05T04:01:50.094Z,1.47
2019-01-05T04:04:39.606Z,1.60
2019-01-05T04:07:30.232Z,1.67
2019-01-05T04:10:35.781Z,1.57
2019-01-05T04:13:37.257Z,1.70
2019-01-05T04:16:32.631Z,1.70
2019-01-05T04:19:27.547Z,1.33
2019-01-05T04:22:32.113Z,1.97
2019-01-05T04:25:34.897Z,1.47
2019-01-05T04:28:57.154Z,1.50
2019-01-05T04:31:48.116Z,1.33
2019-01-05T04:34:55.595Z,1.57
2019-01-05T04:37:55.529Z,1.30
2019-01-05T04:41:01.503Z,1.57
2019-01-05T04:44:08.521Z,1.30
2019-01-05T04:47:15.957Z,1.37
2019-01-05T04:49:51.695Z,1.10
2019-01-05T04:52:43.509Z,1.40
2019-01-05T04:55:47.779Z,1.20
2019-01-05T04:58:47.006Z,1.27
2019-01-05T05:01:52.574Z,1.30
2019-01-05T05:04:50.978Z,1.20
2019-01-05T05:07:50.724Z,1.17
2019-01-05T05:10:41.599Z,1.10
2019-01-05T05:13:35.341Z,0.97
2019-01-05T05:16:45.595Z,0.97
2019-01-05T05:19:42.350Z,1.00
2019-01-05T05:22:33.404Z,1.00
2019-01-05T05:25:37.722Z,1.17
2019-01-05T05:28:36.302Z,1.20
2019-01-05T05:31:27.342Z,1.33
2019-01-05T05:34:48.361Z,1.40
2019-01-05T05:37:46.904Z,1.50
2019-01-05T05:40:52.492Z,1.77
2019-01-05T05:44:05.850Z,1.60
2019-01-05T05:47:06.968Z,1.83
2019-01-05T05:50:26.688Z,1.87
2019-01-05T05:53:17.388Z,2.00
2019-01-05T05:56:20.921Z,2.40
2019-01-05T05:59:28.854Z,2.10
2019-01-05T06:02:13.382Z,2.03
2019-01-05T06:04:49.018Z,2.37
2019-01-05T06:07:50.063Z,2.03
2019-01-05T06:10:55.737Z,2.03
2019-01-05T06:14:18.011Z,1.63
2019-01-05T06:17:23.799Z,1.70
2019-01-05T06:20:19.267Z,1.60
2019-01-05T06:23:11.353Z,1.13
2019-01-05T06:26:12.883Z,1.10
2019-01-05T06:29:06.557Z,1.43
2019-01-05T06:32:12.677Z,1.00
2019-01-05T06:35:06.363Z,1.40
2019-01-05T06:38:03.468Z,1.27
2019-01-05T06:40:52.803Z,1.43
2019-01-05T06:43:54.105Z,1.37
2019-01-05T06:46:46.410Z,1.30
2019-01-05T06:49:46.175Z,1.70
2019-01-05T06:52:51.965Z,1.80
2019-01-05T06:55:30.470Z,2.00
2019-01-05T06:58:09.442Z,2.10
2019-01-05T07:01:26.901Z,1.90
2019-01-05T07:04:41.510Z,1.90
2019-01-05T07:07:47.438Z,1.60
2019-01-05T07:10:56.017Z,1.70
2019-01-05T07:13:51.240Z,1.70
2019-01-05T07:16:50.568Z,1.37
2019-01-05T07:19:26.282Z,1.53
2019-01-05T07:22:34.559Z,1.70
2019-01-05T07:25:40.420Z,1.50
2019-01-05T07:28:35.506Z,1.70
2019-01-05T07:31:11.150Z,1.77
2019-01-05T07:34:20.344Z,1.70
2019-01-05T07:36:56.198Z,1.23
2019-01-05T07:39:54.128Z,1.50
2019-01-05T07:42:51.031Z,1.50
2019-01-05T07:45:27.014Z,1.80
2019-01-05T07:48:26.850Z,1.43
2019-01-05T07:51:22.148Z,1.30
2019-01-05T07:54:13.082Z,1.27
2019-01-05T07:57:16.987Z,1.40
2019-01-05T08:00:25.111Z,1.27
2019-01-05T08:03:01.202Z,1.40
2019-01-05T08:05:48.562Z,1.67
2019-01-05T08:08:52.500Z,1.37
2019-01-05T08:11:43.350Z,1.60
2019-01-05T08:14:50.527Z,1.47
2019-01-05T08:18:00.988Z,1.80
2019-01-05T08:21:11.127Z,1.70
2019-01-05T08:24:21.181Z,1.67
2019-01-05T08:27:02.858Z,2.17
2019-01-05T08:30:03.309Z,2.13
2019-01-05T08:33:02.137Z,2.33
2019-01-05T08:35:54.328Z,1.73
2019-01-05T08:38:43.874Z,1.90
2019-01-05T08:42:06.051Z,3.30
2019-01-05T08:45:01.691Z,2.00
2019-01-05T08:48:16.621Z,1.93
2019-01-05T08:51:13.647Z,2.30
2019-01-05T08:53:51.977Z,1.70
2019-01-05T08:56:53.145Z,2.40
2019-01-05T08:59:40.972Z,1.70
2019-01-05T09:02:28.979Z,1.80
2019-01-05T09:05:27.644Z,1.93
2019-01-05T09:08:19.848Z,2.13
2019-01-05T09:11:34.687Z,1.97
2019-01-05T09:14:26.960Z,2.50
2019-01-05T09:17:43.217Z,2.17
2019-01-05T09:20:31.212Z,2.10
2019-01-05T09:23:48.484Z,2.20
2019-01-05T09:26:56.986Z,2.50
2019-01-05T09:30:04.148Z,2.10
2019-01-05T09:33:08.500Z,2.37
2019-01-05T09:36:11.614Z,2.27
2019-01-05T09:39:04.099Z,3.27
2019-01-05T09:42:08.038Z,2.10
2019-01-05T09:45:08.883Z,2.40
2019-01-05T09:47:50.431Z,2.40
2019-01-05T09:51:06.311Z,2.07
2019-01-05T09:54:01.798Z,2.27
2019-01-05T09:57:13.518Z,2.43
2019-01-05T10:00:17.928Z,2.43
2019-01-05T10:03:17.380Z,2.17
2019-01-05T10:06:15.707Z,2.57
2019-01-05T10:09:12.281Z,2.50
2019-01-05T10:12:24.271Z,2.07
2019-01-05T10:15:32.901Z,2.20
2019-01-05T10:18:38.802Z,1.93
2019-01-05T10:21:40.631Z,2.10
2019-01-05T10:24:39.210Z,2.10
2019-01-05T10:27:41.579Z,2.13
2019-01-05T10:30:47.148Z,1.93
2019-01-05T10:33:38.003Z,2.27
2019-01-05T10:36:48.149Z,2.07
2019-01-05T10:40:10.210Z,2.20
2019-01-05T10:42:57.889Z,2.23
2019-01-05T10:45:54.295Z,2.57
2019-01-05T10:48:55.499Z,2.70
2019-01-05T10:51:52.548Z,2.43
2019-01-05T10:54:58.303Z,2.50
2019-01-05T10:57:58.088Z,2.90
2019-01-05T11:00:59.486Z,2.07
2019-01-05T11:03:53.288Z,2.90
2019-01-05T11:06:59.166Z,2.60
2019-01-05T11:09:40.858Z,2.50
2019-01-05T11:12:42.422Z,3.20
2019-01-05T11:15:18.180Z,3.03
2019-01-05T11:18:23.910Z,2.87
2019-01-05T11:21:19.106Z,2.80
2019-01-05T11:24:20.377Z,2.63
2019-01-05T11:27:23.430Z,2.80
2019-01-05T11:30:11.418Z,3.03
2019-01-05T11:32:55.642Z,2.97
2019-01-05T11:35:40.627Z,3.40
2019-01-05T11:38:50.967Z,3.03
2019-01-05T11:41:56.646Z,3.33
2019-01-05T11:45:09.628Z,3.10
2019-01-05T11:47:51.227Z,3.07
2019-01-05T11:50:58.528Z,2.70
2019-01-05T11:53:57.117Z,3.60
2019-01-05T11:57:05.839Z,3.60
2019-01-05T12:00:16.569Z,3.37
2019-01-05T12:03:32.943Z,2.63
2019-01-05T12:06:32.709Z,3.60
2019-01-05T12:09:35.484Z,6.10
2019-01-05T12:12:41.665Z,3.10
2019-01-05T12:16:01.027Z,2.90
2019-01-05T12:18:34.177Z,2.77
2019-01-05T12:21:29.365Z,3.40
2019-01-05T12:24:43.499Z,2.87
2019-01-05T12:27:31.153Z,3.13
2019-01-05T12:30:32.257Z,2.93
2019-01-05T12:33:29.127Z,2.60
2019-01-05T12:36:43.937Z,2.23
2019-01-05T12:39:54.523Z,2.23
2019-01-05T12:43:00.705Z,2.20
2019-01-05T12:45:52.819Z,5.53
2019-01-05T12:49:14.125Z,2.70
2019-01-05T12:52:15.676Z,3.53
2019-01-05T12:55:25.300Z,2.93
2019-01-05T12:58:44.754Z,2.43
2019-01-05T13:01:45.783Z,2.70
2019-01-05T13:04:37.624Z,2.53
2019-01-05T13:07:51.236Z,2.73
2019-01-05T13:10:40.626Z,2.67
2019-01-05T13:13:35.557Z,2.57
2019-01-05T13:16:29.546Z,2.40
2019-01-05T13:19:33.876Z,2.67
2019-01-05T13:22:30.200Z,3.23
2019-01-05T13:25:17.810Z,3.00
2019-01-05T13:28:28.180Z,3.30
2019-01-05T13:31:20.403Z,2.87
2019-01-05T13:34:36.652Z,2.33
2019-01-05T13:37:31.842Z,2.70
2019-01-05T13:40:20.080Z,2.17
2019-01-05T13:43:15.282Z,2.50
2019-01-05T13:46:37.368Z,2.70
2019-01-05T13:49:29.536Z,2.43
2019-01-05T13:52:18.427Z,3.00
2019-01-05T13:55:08.192Z,3.33
2019-01-05T13:57:38.539Z,2.63
2019-01-05T14:00:17.815Z,3.03
2019-01-05T14:02:47.907Z,2.17
2019-01-05T14:05:33.132Z,2.77
2019-01-05T14:08:18.998Z,2.70
2019-01-05T14:10:54.875Z,2.70
2019-01-05T14:13:24.951Z,2.43
2019-01-05T14:16:11.293Z,2.33
2019-01-05T14:18:41.371Z,2.27
2019-01-05T14:21:17.127Z,2.50
2019-01-05T14:24:03.509Z,2.67
2019-01-05T14:26:48.479Z,2.40
2019-01-05T14:29:34.361Z,2.33
2019-01-05T14:32:04.545Z,2.60
2019-01-05T14:34:37.415Z,2.30
2019-01-05T14:37:16.355Z,2.47
2019-01-05T14:39:46.439Z,2.70
2019-01-05T14:42:19.223Z,2.77
2019-01-05T14:44:52.300Z,2.47
2019-01-05T14:47:22.545Z,2.70
2019-01-05T14:50:01.472Z,2.77
2019-01-05T14:52:47.746Z,2.50
2019-01-05T14:55:34.125Z,2.40
2019-01-05T14:58:20.199Z,2.53
2019-01-05T15:00:52.957Z,2.50
2019-01-05T15:03:39.110Z,2.93
2019-01-05T15:06:25.212Z,2.43
2019-01-05T15:08:55.392Z,2.60
2019-01-05T15:11:28.426Z,2.30
2019-01-05T15:14:14.570Z,2.40
2019-01-05T15:16:45.073Z,2.40
2019-01-05T15:19:31.466Z,2.60
2019-01-05T15:22:10.319Z,2.47
2019-01-05T15:24:56.463Z,2.60
2019-01-05T15:27:42.592Z,2.43
2019-01-05T15:30:18.444Z,2.67
2019-01-05T15:32:51.239Z,2.73
2019-01-05T15:35:21.404Z,2.83
2019-01-05T15:38:00.406Z,3.53
2019-01-05T15:40:45.896Z,2.73
2019-01-05T15:43:24.668Z,2.90
2019-01-05T15:45:54.813Z,2.80
2019-01-05T15:48:30.844Z,3.13
2019-01-05T15:51:15.808Z,3.00
2019-01-05T15:54:02.111Z,3.70
2019-01-05T15:56:35.178Z,5.53
2019-01-05T15:59:21.253Z,7.60
2019-01-05T16:02:07.698Z,15.27
2019-01-05T16:04:37.811Z,7.77
2019-01-05T16:07:16.621Z,4.47
2019-01-05T16:10:04.699Z,3.60
2019-01-05T16:12:37.441Z,3.97
2019-01-05T16:15:24.149Z,3.07
2019-01-05T16:18:10.219Z,3.40
2019-01-05T16:20:46.022Z,3.40
2019-01-05T16:23:32.323Z,3.10
2019-01-05T16:26:20.067Z,3.63
2019-01-05T16:28:52.855Z,3.57
2019-01-05T16:31:25.943Z,3.70
2019-01-05T16:34:04.462Z,4.00
2019-01-05T16:36:34.559Z,3.50
2019-01-05T16:39:16.439Z,4.90
2019-01-05T16:41:49.017Z,5.30
2019-01-05T16:44:35.359Z,4.90
2019-01-05T16:47:23.289Z,4.53
2019-01-05T16:49:53.373Z,4.67
2019-01-05T16:52:32.431Z,4.97
2019-01-05T16:55:02.535Z,4.47
2019-01-05T16:57:35.715Z,4.63
2019-01-05T17:00:07.605Z,4.60
2019-01-05T17:02:37.729Z,5.27
2019-01-05T17:05:13.539Z,5.00
2019-01-05T17:07:55.345Z,5.63
2019-01-05T17:10:43.188Z,5.50
2019-01-05T17:13:29.378Z,5.13
2019-01-05T17:16:15.191Z,10.57
2019-01-05T17:19:00.062Z,6.17
2019-01-05T17:21:38.827Z,6.00
2019-01-05T17:24:24.996Z,6.33
2019-01-05T17:27:11.362Z,6.13
2019-01-05T17:29:41.432Z,6.17
2019-01-05T17:32:11.530Z,7.10
2019-01-05T17:34:53.496Z,6.97
2019-01-05T17:37:32.350Z,6.47
2019-01-05T17:40:08.122Z,6.60
2019-01-05T17:42:43.954Z,6.73
2019-01-05T17:45:30.038Z,6.90
2019-01-05T17:48:06.177Z,6.87
2019-01-05T17:50:41.975Z,6.03
2019-01-05T17:53:14.635Z,6.47
2019-01-05T17:56:00.497Z,6.90
2019-01-05T17:58:30.590Z,7.10
2019-01-05T18:01:07.220Z,7.80
2019-01-05T18:03:37.306Z,6.70
2019-01-05T18:06:16.197Z,8.10
2019-01-05T18:08:58.431Z,7.20
2019-01-05T18:11:44.707Z,10.40
2019-01-05T18:14:14.826Z,7.93
2019-01-05T18:17:00.982Z,7.70
2019-01-05T18:19:33.802Z,7.13
2019-01-05T18:22:03.984Z,7.37
2019-01-05T18:24:34.161Z,7.03
2019-01-05T18:27:07.101Z,7.40
2019-01-05T18:29:51.859Z,7.20
2019-01-05T18:32:24.858Z,7.23
2019-01-05T18:34:55.027Z,7.53
2019-01-05T18:37:25.181Z,7.80
2019-01-05T18:40:01.085Z,8.93
2019-01-05T18:42:47.262Z,8.47
2019-01-05T18:45:33.289Z,8.00
2019-01-05T18:48:08.872Z,7.63
2019-01-05T18:50:45.022Z,8.07
2019-01-05T18:53:17.591Z,7.80
2019-01-05T18:56:03.777Z,6.87
2019-01-05T18:58:33.957Z,7.77
2019-01-05T19:01:20.502Z,7.83
2019-01-05T19:03:50.624Z,12.77
2019-01-05T19:06:36.560Z,14.10
2019-01-05T19:09:20.659Z,7.90
2019-01-05T19:11:59.307Z,8.73
2019-01-05T19:14:41.480Z,8.17
2019-01-05T19:17:17.374Z,8.47
2019-01-05T19:20:02.378Z,8.63
2019-01-05T19:22:32.527Z,8.33
2019-01-05T19:25:02.681Z,8.50
2019-01-05T19:27:32.864Z,8.30
2019-01-05T19:30:03.026Z,9.60
2019-01-05T19:32:33.186Z,9.40
2019-01-05T19:35:15.176Z,9.87
2019-01-05T19:38:01.077Z,9.83
2019-01-05T19:40:37.485Z,9.90
2019-01-05T19:43:23.670Z,9.70
2019-01-05T19:46:09.986Z,8.63
2019-01-05T19:48:49.083Z,9.83
2019-01-05T19:51:19.157Z,9.57
2019-01-05T19:53:49.346Z,9.77
2019-01-05T19:56:28.456Z,9.50
2019-01-05T19:59:13.500Z,9.67
2019-01-05T20:01:43.636Z,9.90
2019-01-05T20:04:31.394Z,10.33
2019-01-05T20:07:17.123Z,9.83
2019-01-05T20:09:50.215Z,9.93
2019-01-05T20:12:36.513Z,10.30
2019-01-05T20:15:16.560Z,9.83
2019-01-05T20:17:52.163Z,9.07
2019-01-05T20:20:24.781Z,9.00
2019-01-05T20:22:54.881Z,9.37
2019-01-05T20:25:27.725Z,8.80
2019-01-05T20:28:00.477Z,9.63
2019-01-05T20:30:33.522Z,9.37
2019-01-05T20:33:09.021Z,8.87
2019-01-05T20:35:48.179Z,9.27
2019-01-05T20:38:33.965Z,8.50
2019-01-05T20:41:04.079Z,9.37
2019-01-05T20:43:37.017Z,8.40
2019-01-05T20:46:07.103Z,8.23
2019-01-05T20:48:55.240Z,8.43
2019-01-05T20:51:37.311Z,8.80
2019-01-05T20:54:09.879Z,8.67
2019-01-05T20:56:48.395Z,8.57
2019-01-05T20:59:18.548Z,8.10
2019-01-05T21:02:04.959Z,8.00
2019-01-05T21:04:35.043Z,7.87
2019-01-05T21:07:13.615Z,8.30
2019-01-05T21:10:02.987Z,6.93
2019-01-05T21:12:33.158Z,7.30
2019-01-05T21:15:03.244Z,5.83
2019-01-05T21:17:43.667Z,6.47
2019-01-05T21:20:16.173Z,5.83
2019-01-05T21:22:46.350Z,4.87
2019-01-05T21:25:16.441Z,5.03
2019-01-05T21:27:55.098Z,4.33
2019-01-05T21:30:41.330Z,3.73
2019-01-05T21:33:27.743Z,4.47
2019-01-05T21:36:14.054Z,3.57
2019-01-05T21:38:50.272Z,3.40
2019-01-05T21:41:23.028Z,2.93
2019-01-05T21:44:09.033Z,3.17
2019-01-05T21:46:39.111Z,2.73
2019-01-05T21:49:25.559Z,2.80
2019-01-05T21:52:13.746Z,3.07
2019-01-05T21:54:46.601Z,2.30
2019-01-05T21:57:25.840Z,2.47
2019-01-05T21:59:55.957Z,2.40
2019-01-05T22:02:26.041Z,2.77
2019-01-05T22:05:08.244Z,2.23
2019-01-05T22:07:54.291Z,2.27
2019-01-05T22:10:27.354Z,2.70
2019-01-05T22:13:03.121Z,2.80
2019-01-05T22:15:41.963Z,2.60
2019-01-05T22:18:28.331Z,2.60
2019-01-05T22:21:16.616Z,2.63
2019-01-05T22:24:04.706Z,2.70
2019-01-05T22:26:50.892Z,2.70
2019-01-05T22:29:35.931Z,2.73
2019-01-05T22:32:21.817Z,2.67
2019-01-05T22:35:07.877Z,2.20
2019-01-05T22:37:44.066Z,3.00
2019-01-05T22:40:26.031Z,2.33
2019-01-05T22:42:56.147Z,2.97
2019-01-05T22:45:42.373Z,2.83
2019-01-05T22:48:18.527Z,2.50
2019-01-05T22:51:06.663Z,2.53
2019-01-05T22:53:51.851Z,2.63
2019-01-05T22:56:27.783Z,2.87
2019-01-05T22:58:57.919Z,2.70
2019-01-05T23:01:42.914Z,2.90
2019-01-05T23:04:13.015Z,2.77
2019-01-05T23:06:43.097Z,3.20
2019-01-05T23:09:13.199Z,2.80
2019-01-05T23:11:59.163Z,3.30
2019-01-05T23:14:45.567Z,3.07
2019-01-05T23:17:15.647Z,3.37
2019-01-05T23:20:02.290Z,3.30
2019-01-05T23:22:48.882Z,2.70
2019-01-05T23:25:21.894Z,3.20
2019-01-05T23:28:08.684Z,3.13
2019-01-05T23:30:40.035Z,2.80
2019-01-05T23:33:10.703Z,2.93
2019-01-05T23:35:46.761Z,3.03
2019-01-05T23:38:33.946Z,3.20
2019-01-05T23:41:12.827Z,2.73
2019-01-05T23:43:48.753Z,3.33
2019-01-05T23:46:21.614Z,2.90
2019-01-05T23:48:51.761Z,3.10
2019-01-05T23:51:38.129Z,3.23
2019-01-05T23:54:08.206Z,3.47
2019-01-05T23:56:54.526Z,3.00
2019-01-05T23:59:24.601Z,4.03
